WMSA/SZB METAR and TAF weather

Enter ICAO airport designator
Station Type Date Time Source
WMSA METAR 2023/01/30 11:00 UTC NOAA

WMSA 301100Z 06003KT 340V120 9999 FEW017CB 29/21 Q1009


Station Type Date Time Source
WMSA Decoded METAR 2023/01/30 11:00 UTC NOAA

Subang/Sultan Abdul Aziz Shah Airport, Malaysia (WMSA) 03-07N 101-32E
Jan 30, 2023 - 06:00 AM EST / 2023.01.30 1100 UTC
Wind: from the ENE (060 degrees) at 3 MPH (3 KT) (direction variable):0
Visibility: greater than 7 mile(s):0
Sky conditions: mostly clear
Weather: Cumulonimbus clouds observed
Temperature: 84 F (29 C)
Dew Point: 69 F (21 C)
Relative Humidity: 62%
Pressure (altimeter): 29.80 in. Hg (1009 hPa)
ob: WMSA 301100Z 06003KT 340V120 9999 FEW017CB 29/21 Q1009
cycle: 11

Station Type Date Time Source
WMSA TAF 2023/01/30 12:09 UTC NOAA

TAF WMSA 301100Z 3012/3112 VRB02KT 9999 FEW026

Example: see airport list